createdAt,value
2022-07-31T00:00:43.018Z,100097.94
2022-07-31T00:01:45.082Z,100093.69
2022-07-31T00:02:46.982Z,100101.03
2022-07-31T00:03:48.632Z,100104.75
2022-07-31T00:04:50.335Z,100111.00
2022-07-31T00:05:51.962Z,100069.91
2022-07-31T00:06:53.667Z,100107.09
2022-07-31T00:07:55.413Z,100104.66
2022-07-31T00:08:56.926Z,100113.75
2022-07-31T00:09:58.485Z,100106.00
2022-07-31T00:11:00.113Z,100104.41
2022-07-31T00:12:01.736Z,100104.53
2022-07-31T00:13:03.787Z,100107.38
2022-07-31T00:14:05.466Z,100106.00
2022-07-31T00:15:09.957Z,100106.00
2022-07-31T00:16:11.521Z,100108.56
2022-07-31T00:17:13.125Z,100106.44
2022-07-31T00:18:14.730Z,100104.63
2022-07-31T00:19:17.499Z,100108.03
2022-07-31T00:20:19.100Z,100095.09
2022-07-31T00:21:20.922Z,100099.22
2022-07-31T00:22:22.509Z,100103.78
2022-07-31T00:23:24.128Z,100100.63
2022-07-31T00:24:26.938Z,100125.38
2022-07-31T00:25:32.079Z,100106.75
2022-07-31T00:26:33.688Z,100101.78
2022-07-31T00:27:35.443Z,100099.44
2022-07-31T00:28:37.600Z,100102.28
2022-07-31T00:29:39.623Z,100103.34
2022-07-31T00:30:41.123Z,100103.47
2022-07-31T00:31:42.698Z,100099.22
2022-07-31T00:32:45.275Z,100099.53
2022-07-31T00:33:46.919Z,100101.56
2022-07-31T00:34:48.548Z,100102.59
2022-07-31T00:35:50.231Z,100122.50
2022-07-31T00:36:51.826Z,100105.13
2022-07-31T00:38:02.216Z,100103.44
2022-07-31T00:39:15.331Z,100101.72
2022-07-31T00:40:17.607Z,100097.59
2022-07-31T00:41:19.383Z,100098.94
2022-07-31T00:42:25.601Z,100097.47
2022-07-31T00:43:30.000Z,100092.47
2022-07-31T00:44:32.577Z,100102.13
2022-07-31T00:45:34.138Z,100103.91
2022-07-31T00:46:40.285Z,100098.94
2022-07-31T00:47:42.545Z,100093.25
2022-07-31T00:48:44.178Z,100093.47
2022-07-31T00:49:46.189Z,100097.91
2022-07-31T00:50:47.749Z,100101.50
2022-07-31T00:51:49.368Z,100092.81
2022-07-31T00:52:51.598Z,100092.69
2022-07-31T00:53:53.362Z,100091.88
2022-07-31T00:54:54.948Z,100092.19
2022-07-31T00:55:57.394Z,100089.06
2022-07-31T00:56:58.954Z,100093.63
2022-07-31T00:58:02.369Z,100099.94
2022-07-31T00:59:04.906Z,100062.75
2022-07-31T01:00:07.114Z,100086.41
2022-07-31T01:01:08.731Z,100096.84
2022-07-31T01:02:10.629Z,100115.66
2022-07-31T01:03:12.227Z,100114.06
2022-07-31T01:04:16.337Z,100098.78
2022-07-31T01:05:20.970Z,100101.06
2022-07-31T01:06:22.985Z,100105.38
2022-07-31T01:07:24.516Z,100097.25
2022-07-31T01:08:26.079Z,100098.66
2022-07-31T01:09:27.607Z,100104.72
2022-07-31T01:10:43.263Z,100106.50
2022-07-31T01:11:49.109Z,100101.22
2022-07-31T01:12:56.623Z,100105.53
2022-07-31T01:14:01.605Z,100109.69
2022-07-31T01:15:07.166Z,100099.41
2022-07-31T01:16:11.100Z,100111.06
2022-07-31T01:17:13.791Z,100108.53
2022-07-31T01:18:17.363Z,100110.88
2022-07-31T01:19:38.114Z,100108.06
2022-07-31T01:20:48.222Z,100113.22
2022-07-31T01:21:58.326Z,100100.19
2022-07-31T01:22:59.838Z,100104.44
2022-07-31T01:24:08.495Z,100103.50
2022-07-31T01:25:25.805Z,100108.25
2022-07-31T01:26:42.276Z,100105.28
2022-07-31T01:28:02.244Z,100103.59
2022-07-31T01:29:10.120Z,100106.03
2022-07-31T01:30:11.948Z,100100.13
2022-07-31T01:31:27.048Z,100107.75
2022-07-31T01:32:43.041Z,100106.88
2022-07-31T01:33:53.848Z,100106.16
2022-07-31T01:35:06.571Z,100109.63
2022-07-31T01:36:16.280Z,100097.78
2022-07-31T01:37:27.598Z,100115.13
2022-07-31T01:38:42.495Z,100118.94
2022-07-31T01:39:54.643Z,100111.38
2022-07-31T01:41:02.584Z,100121.38
2022-07-31T01:42:07.612Z,100118.22
2022-07-31T01:43:13.876Z,100115.75
2022-07-31T01:44:18.252Z,100118.59
2022-07-31T01:45:22.323Z,100115.38
2022-07-31T01:46:27.965Z,100116.53
2022-07-31T01:47:32.472Z,100110.69
2022-07-31T01:48:36.405Z,100114.31
2022-07-31T01:49:39.849Z,100101.38
2022-07-31T01:50:47.662Z,100109.00
2022-07-31T01:51:49.779Z,100105.72
2022-07-31T01:52:57.457Z,100104.97
2022-07-31T01:54:01.570Z,100106.84
2022-07-31T01:55:05.175Z,100103.75
2022-07-31T01:56:07.560Z,100111.50
2022-07-31T01:57:10.804Z,100105.53
2022-07-31T01:58:18.964Z,100109.97
2022-07-31T01:59:22.814Z,100109.97
2022-07-31T02:00:34.558Z,100106.50
2022-07-31T02:01:39.083Z,100115.47
2022-07-31T02:02:43.228Z,100106.75
2022-07-31T02:03:46.387Z,100112.91
2022-07-31T02:04:54.285Z,100110.38
2022-07-31T02:05:57.520Z,100106.69
2022-07-31T02:07:01.273Z,100122.06
2022-07-31T02:08:05.951Z,100121.13
2022-07-31T02:09:07.748Z,100110.66
2022-07-31T02:10:15.595Z,100067.47
2022-07-31T02:11:19.248Z,100109.06
2022-07-31T02:12:33.534Z,100112.63
2022-07-31T02:13:37.441Z,100109.22
2022-07-31T02:14:41.893Z,100111.13
2022-07-31T02:15:44.992Z,100105.84
2022-07-31T02:16:47.295Z,100114.63
2022-07-31T02:17:50.534Z,100111.97
2022-07-31T02:18:53.932Z,100111.97
2022-07-31T02:20:00.088Z,100112.72
2022-07-31T02:21:05.127Z,100104.69
2022-07-31T02:22:07.405Z,100109.81
2022-07-31T02:23:09.139Z,100118.47
2022-07-31T02:24:10.991Z,100114.34
2022-07-31T02:25:12.690Z,100124.50
2022-07-31T02:26:16.160Z,100104.97
2022-07-31T02:27:53.771Z,100108.47
2022-07-31T02:28:43.643Z,100111.00
2022-07-31T02:29:45.592Z,100113.66
2022-07-31T02:30:48.824Z,100116.97
2022-07-31T02:32:01.998Z,100108.06
2022-07-31T02:33:18.861Z,100113.34
2022-07-31T02:34:20.533Z,100109.41
2022-07-31T02:35:31.729Z,100104.22
2022-07-31T02:36:35.011Z,100108.66
2022-07-31T02:37:39.854Z,100111.50
2022-07-31T02:38:43.501Z,100113.47
2022-07-31T02:39:46.323Z,100115.25
2022-07-31T02:40:49.317Z,100114.50
2022-07-31T02:41:52.720Z,100112.84
2022-07-31T02:42:55.594Z,100119.91
2022-07-31T02:43:57.927Z,100113.13
2022-07-31T02:45:01.819Z,100121.28
2022-07-31T02:46:04.616Z,100116.19
2022-07-31T02:47:06.549Z,100113.66
2022-07-31T02:48:10.380Z,100119.88
2022-07-31T02:49:14.036Z,100121.66
2022-07-31T02:50:20.519Z,100113.94
2022-07-31T02:51:23.425Z,100112.13
2022-07-31T02:52:26.442Z,100114.78
2022-07-31T02:53:29.593Z,100105.34
2022-07-31T02:54:33.903Z,100114.78
2022-07-31T02:55:38.345Z,100098.19
2022-07-31T02:56:41.387Z,100106.94
2022-07-31T02:57:44.545Z,100100.94
2022-07-31T02:58:46.186Z,100102.72
2022-07-31T02:59:47.887Z,100104.59
2022-07-31T03:01:07.499Z,100103.75
2022-07-31T03:02:09.154Z,100096.78
2022-07-31T03:03:10.784Z,100094.91
2022-07-31T03:04:12.354Z,100094.69
2022-07-31T03:05:14.008Z,100090.38
2022-07-31T03:06:16.703Z,100075.66
2022-07-31T03:07:18.452Z,100086.75
2022-07-31T03:08:20.114Z,100082.06
2022-07-31T03:09:22.037Z,100086.78
2022-07-31T03:10:23.741Z,100083.88
2022-07-31T03:11:25.449Z,100084.44
2022-07-31T03:12:27.251Z,100077.25
2022-07-31T03:13:31.400Z,100071.03
2022-07-31T03:14:35.171Z,100081.66
2022-07-31T03:15:40.272Z,100084.78
2022-07-31T03:16:46.506Z,100082.88
2022-07-31T03:17:49.107Z,100085.97
2022-07-31T03:18:51.671Z,100077.19
2022-07-31T03:19:53.852Z,100088.66
2022-07-31T03:20:56.797Z,100076.59
2022-07-31T03:21:59.348Z,100096.22
2022-07-31T03:23:02.160Z,100093.56
2022-07-31T03:24:04.727Z,100095.19
2022-07-31T03:25:07.925Z,100098.56
2022-07-31T03:26:10.723Z,100093.34
2022-07-31T03:27:12.379Z,100096.00
2022-07-31T03:28:14.140Z,100094.97
2022-07-31T03:29:39.267Z,100092.63
2022-07-31T03:30:37.686Z,100078.88
2022-07-31T03:31:39.295Z,100089.38
2022-07-31T03:32:40.834Z,100093.53
2022-07-31T03:33:42.755Z,100103.25
2022-07-31T03:34:44.305Z,100098.91
2022-07-31T03:35:45.949Z,100083.44
2022-07-31T03:36:48.775Z,100090.78
2022-07-31T03:37:50.640Z,100099.25
2022-07-31T03:38:52.290Z,100098.28
2022-07-31T03:39:56.963Z,100098.41
2022-07-31T03:40:58.483Z,100096.06
2022-07-31T03:42:02.315Z,100052.09
2022-07-31T03:43:04.850Z,100097.22
2022-07-31T03:44:06.689Z,100100.72
2022-07-31T03:45:10.924Z,100088.84
2022-07-31T03:46:14.905Z,100095.63
2022-07-31T03:47:17.040Z,100095.25
2022-07-31T03:48:18.744Z,100097.06
2022-07-31T03:49:21.737Z,100059.94
2022-07-31T03:50:24.519Z,100086.31
2022-07-31T03:51:26.341Z,100118.41
2022-07-31T03:52:29.119Z,100099.78
2022-07-31T03:53:31.465Z,100106.88
2022-07-31T03:54:33.113Z,100101.69
2022-07-31T03:55:37.883Z,100096.53
2022-07-31T03:56:45.067Z,100102.00
2022-07-31T03:57:48.393Z,100093.50
2022-07-31T03:58:52.388Z,100105.19
2022-07-31T03:59:57.737Z,100104.22
2022-07-31T04:00:59.721Z,100105.94
2022-07-31T04:02:05.440Z,100103.19
2022-07-31T04:03:11.148Z,100107.66
2022-07-31T04:04:13.553Z,100103.19
2022-07-31T04:05:15.290Z,100106.78
2022-07-31T04:06:17.090Z,100099.25
2022-07-31T04:07:19.451Z,100101.69
2022-07-31T04:08:20.977Z,100101.59
2022-07-31T04:09:22.568Z,100099.59
2022-07-31T04:10:24.211Z,100101.09
2022-07-31T04:11:25.766Z,100101.75
2022-07-31T04:12:27.307Z,100040.91
2022-07-31T04:13:28.886Z,100092.94
2022-07-31T04:14:30.623Z,100096.50
2022-07-31T04:15:33.102Z,100098.53
2022-07-31T04:16:34.719Z,100094.84
2022-07-31T04:17:36.251Z,100090.53
2022-07-31T04:18:38.091Z,100092.78
2022-07-31T04:19:39.850Z,100092.47
2022-07-31T04:20:41.387Z,100093.34
2022-07-31T04:21:42.976Z,100086.88
2022-07-31T04:22:44.869Z,100094.31
2022-07-31T04:23:50.769Z,100095.59
2022-07-31T04:24:52.361Z,100096.44
2022-07-31T04:25:53.955Z,100093.69
2022-07-31T04:26:56.258Z,100094.31
2022-07-31T04:27:57.831Z,100098.16
2022-07-31T04:28:59.534Z,100098.78
2022-07-31T04:30:01.177Z,100100.06
2022-07-31T04:31:04.662Z,100098.81
2022-07-31T04:32:06.701Z,100094.03
2022-07-31T04:33:08.544Z,100106.56
2022-07-31T04:34:10.177Z,100102.53
2022-07-31T04:35:12.013Z,100105.78
2022-07-31T04:36:29.567Z,100105.47
2022-07-31T04:37:32.902Z,100107.47
2022-07-31T04:38:34.409Z,100107.19
2022-07-31T04:39:36.652Z,100104.44
2022-07-31T04:40:38.541Z,100109.31
2022-07-31T04:41:40.179Z,100111.84
2022-07-31T04:42:41.712Z,100110.78
2022-07-31T04:43:43.318Z,100102.81
2022-07-31T04:44:45.239Z,100105.38
2022-07-31T04:45:46.854Z,100099.22
2022-07-31T04:46:48.937Z,100107.72
2022-07-31T04:47:50.544Z,100096.34
2022-07-31T04:48:52.163Z,100069.50
2022-07-31T04:49:53.769Z,100110.84
2022-07-31T04:50:55.364Z,100106.19
2022-07-31T04:51:57.430Z,100109.47
2022-07-31T04:52:58.988Z,100107.34
2022-07-31T04:54:00.558Z,100114.75
2022-07-31T04:55:02.260Z,100115.16
2022-07-31T04:56:22.370Z,100118.31
2022-07-31T04:57:23.936Z,100118.94
2022-07-31T04:58:25.504Z,100115.94
2022-07-31T05:00:00.599Z,100113.94
2022-07-31T05:00:48.611Z,100120.50
2022-07-31T05:01:51.439Z,100133.75
2022-07-31T05:02:53.190Z,100126.41
2022-07-31T05:03:54.786Z,100125.13
2022-07-31T05:04:57.329Z,100113.53
2022-07-31T05:06:09.627Z,100117.25
2022-07-31T05:07:11.775Z,100120.41
2022-07-31T05:08:13.337Z,100115.50
2022-07-31T05:09:19.038Z,100110.78
2022-07-31T05:10:39.880Z,100119.25
2022-07-31T05:11:42.106Z,100115.75
2022-07-31T05:12:43.635Z,100120.63
2022-07-31T05:13:45.614Z,100118.34
2022-07-31T05:14:47.154Z,100127.03
2022-07-31T05:15:48.686Z,100118.50
2022-07-31T05:16:50.516Z,100123.59
2022-07-31T05:17:52.114Z,100120.59
2022-07-31T05:18:54.311Z,100122.25
2022-07-31T05:19:55.816Z,100102.03
2022-07-31T05:20:57.382Z,100111.25
2022-07-31T05:22:03.532Z,100106.19
2022-07-31T05:23:06.555Z,100096.94
2022-07-31T05:24:08.558Z,100104.78
2022-07-31T05:25:10.123Z,100102.88
2022-07-31T05:26:12.575Z,100110.47
2022-07-31T05:27:14.323Z,100107.84
2022-07-31T05:28:15.895Z,100112.16
2022-07-31T05:29:18.456Z,100107.56
2022-07-31T05:30:29.899Z,100100.69
2022-07-31T05:31:32.219Z,100105.63
2022-07-31T05:32:33.799Z,100101.31
2022-07-31T05:33:35.985Z,100102.97
2022-07-31T05:34:37.580Z,100102.03
2022-07-31T05:35:39.150Z,100096.00
2022-07-31T05:36:45.026Z,100095.78
2022-07-31T05:37:46.579Z,100103.84
2022-07-31T05:38:48.164Z,100093.00
2022-07-31T05:39:49.773Z,100103.38
2022-07-31T05:40:51.308Z,100100.28
2022-07-31T05:41:52.980Z,100102.56
2022-07-31T05:42:55.260Z,100099.91
2022-07-31T05:43:56.833Z,100100.88
2022-07-31T05:44:58.397Z,100098.97
2022-07-31T05:46:00.023Z,100099.56
2022-07-31T05:47:01.560Z,100105.09
2022-07-31T05:48:03.531Z,100108.50
2022-07-31T05:49:05.223Z,100100.28
2022-07-31T05:50:08.170Z,100104.16
2022-07-31T05:51:12.035Z,100103.91
2022-07-31T05:52:13.599Z,100102.94
2022-07-31T05:53:15.445Z,100103.91
2022-07-31T05:54:17.615Z,100102.94
2022-07-31T05:55:19.342Z,100113.31
2022-07-31T05:56:21.380Z,100110.66
2022-07-31T05:57:33.349Z,100109.69
2022-07-31T05:58:36.226Z,100107.56
2022-07-31T05:59:37.895Z,100115.00
2022-07-31T06:00:42.054Z,100113.66
2022-07-31T06:01:43.691Z,100108.06
2022-07-31T06:02:45.537Z,100109.00
2022-07-31T06:03:51.836Z,100106.53
2022-07-31T06:04:53.897Z,100106.44
2022-07-31T06:05:58.286Z,100109.16
2022-07-31T06:06:59.834Z,100111.19
2022-07-31T06:08:01.799Z,100099.44
2022-07-31T06:09:04.709Z,100116.53
2022-07-31T06:10:06.949Z,100107.88
2022-07-31T06:11:08.509Z,100107.88
2022-07-31T06:12:10.074Z,100117.94
2022-07-31T06:13:12.236Z,100112.50
2022-07-31T06:14:13.770Z,100110.03
2022-07-31T06:15:15.736Z,100115.13
2022-07-31T06:16:18.000Z,100111.75
2022-07-31T06:17:19.601Z,100113.56
2022-07-31T06:18:21.737Z,100112.13
2022-07-31T06:19:24.747Z,100110.72
2022-07-31T06:20:27.073Z,100113.91
2022-07-31T06:21:30.762Z,100110.50
2022-07-31T06:22:32.793Z,100108.25
2022-07-31T06:23:34.402Z,100112.72
2022-07-31T06:24:38.394Z,100107.06
2022-07-31T06:25:44.119Z,100103.16
2022-07-31T06:26:48.089Z,100109.91
2022-07-31T06:27:59.227Z,100105.31
2022-07-31T06:29:01.627Z,100101.78
2022-07-31T06:30:06.930Z,100105.22
2022-07-31T06:31:08.532Z,100106.25
2022-07-31T06:32:10.214Z,100109.84
2022-07-31T06:33:36.694Z,100107.56
2022-07-31T06:34:33.408Z,100104.63
2022-07-31T06:35:34.991Z,100102.97
2022-07-31T06:36:36.602Z,100101.53
2022-07-31T06:37:38.259Z,100103.69
2022-07-31T06:38:39.886Z,100104.00
2022-07-31T06:39:55.738Z,100111.19
2022-07-31T06:40:57.745Z,100106.00
2022-07-31T06:41:59.418Z,100113.75
2022-07-31T06:43:06.303Z,100107.63
2022-07-31T06:44:08.621Z,100104.25
2022-07-31T06:45:10.671Z,100104.13
2022-07-31T06:46:13.723Z,100104.25
2022-07-31T06:47:20.731Z,100097.22
2022-07-31T06:48:22.414Z,100104.38
2022-07-31T06:49:24.239Z,100115.91
2022-07-31T06:50:25.945Z,100099.97
2022-07-31T06:51:32.008Z,100101.34
2022-07-31T06:52:34.072Z,100094.63
2022-07-31T06:53:35.661Z,100096.56
2022-07-31T06:54:37.357Z,100095.97
2022-07-31T06:55:44.509Z,100106.31
2022-07-31T06:56:46.473Z,100091.28
2022-07-31T06:57:48.154Z,100098.22
2022-07-31T06:58:49.868Z,100097.63
2022-07-31T06:59:51.428Z,100093.88
2022-07-31T07:00:53.310Z,100107.91
2022-07-31T07:01:54.978Z,100084.81
2022-07-31T07:02:56.612Z,100090.72
2022-07-31T07:03:58.410Z,100090.59
2022-07-31T07:05:06.676Z,100091.78
2022-07-31T07:06:08.547Z,100093.31
2022-07-31T07:07:10.240Z,100095.50
2022-07-31T07:08:11.823Z,100096.63
2022-07-31T07:09:13.545Z,100097.03
2022-07-31T07:10:15.116Z,100094.34
2022-07-31T07:11:19.560Z,100102.09
2022-07-31T07:12:21.224Z,100080.22
2022-07-31T07:13:24.166Z,100101.44
2022-07-31T07:14:45.686Z,100101.63
2022-07-31T07:15:47.528Z,100089.03
2022-07-31T07:16:49.076Z,100089.69
2022-07-31T07:17:50.593Z,100099.78
2022-07-31T07:18:52.137Z,100096.72
2022-07-31T07:19:54.933Z,100090.34
2022-07-31T07:20:57.843Z,100097.06
2022-07-31T07:21:59.684Z,100089.97
2022-07-31T07:23:01.263Z,100094.69
2022-07-31T07:24:04.116Z,100092.66
2022-07-31T07:25:06.125Z,100091.53
2022-07-31T07:26:08.307Z,100094.88
2022-07-31T07:27:09.887Z,100100.06
2022-07-31T07:28:15.218Z,100094.13
2022-07-31T07:29:32.980Z,100094.25
2022-07-31T07:30:35.457Z,100097.88
2022-07-31T07:31:37.524Z,100091.91
2022-07-31T07:32:39.136Z,100087.59
2022-07-31T07:33:42.765Z,100094.28
2022-07-31T07:34:44.737Z,100098.09
2022-07-31T07:35:46.446Z,100092.63
2022-07-31T07:36:48.084Z,100088.31
2022-07-31T07:37:49.804Z,100087.66
2022-07-31T07:38:56.102Z,100085.72
2022-07-31T07:40:03.749Z,100098.72
2022-07-31T07:41:05.698Z,100093.44
2022-07-31T07:42:07.540Z,100096.53
2022-07-31T07:43:09.402Z,100086.03
2022-07-31T07:44:10.961Z,100078.31
2022-07-31T07:45:13.970Z,100080.78
2022-07-31T07:46:15.754Z,100083.47
2022-07-31T07:47:17.870Z,100083.06
2022-07-31T07:48:19.495Z,100073.69
2022-07-31T07:49:21.752Z,100080.19
2022-07-31T07:50:26.759Z,100078.94
2022-07-31T07:51:30.855Z,100077.63
2022-07-31T07:52:32.411Z,100072.44
2022-07-31T07:53:34.072Z,100079.97
2022-07-31T07:54:35.623Z,100073.25
2022-07-31T07:55:37.703Z,100071.06
2022-07-31T07:56:39.534Z,100075.03
2022-07-31T07:57:45.305Z,100077.72
2022-07-31T07:58:49.121Z,100074.81
2022-07-31T07:59:50.734Z,100066.47
2022-07-31T08:00:52.455Z,100080.56
2022-07-31T08:01:54.241Z,100069.91
2022-07-31T08:03:47.647Z,100074.34
2022-07-31T08:04:17.673Z,100071.31
2022-07-31T08:05:19.439Z,100080.03
2022-07-31T08:06:22.609Z,100070.03
2022-07-31T08:07:41.661Z,100077.56
2022-07-31T08:08:44.043Z,100070.88
2022-07-31T08:09:45.906Z,100071.06
2022-07-31T08:10:47.665Z,100067.53
2022-07-31T08:11:49.671Z,100064.56
2022-07-31T08:12:51.244Z,100063.38
2022-07-31T08:13:52.923Z,100060.03
2022-07-31T08:14:54.618Z,100070.13
2022-07-31T08:15:56.269Z,100063.53
2022-07-31T08:16:57.940Z,100064.94
2022-07-31T08:17:59.498Z,100068.84
2022-07-31T08:19:01.068Z,100053.25
2022-07-31T08:20:02.939Z,100066.47
2022-07-31T08:21:04.599Z,100072.13
2022-07-31T08:22:06.511Z,100074.38
2022-07-31T08:23:08.442Z,100065.38
2022-07-31T08:24:11.408Z,100064.13
2022-07-31T08:25:15.201Z,100056.63
2022-07-31T08:26:18.248Z,100063.22
2022-07-31T08:27:37.971Z,100060.22
2022-07-31T08:28:50.181Z,100064.13
2022-07-31T08:29:58.358Z,100059.91
2022-07-31T08:31:00.044Z,100058.34
2022-07-31T08:32:02.042Z,100064.00
2022-07-31T08:33:04.111Z,100065.47
2022-07-31T08:34:05.758Z,100064.38
2022-07-31T08:35:08.120Z,100049.31
2022-07-31T08:36:09.754Z,100057.81
2022-07-31T08:37:51.816Z,100061.38
2022-07-31T08:38:33.222Z,100065.44
2022-07-31T08:39:35.579Z,100058.63
2022-07-31T08:40:42.747Z,100061.56
2022-07-31T08:41:45.939Z,100053.06
2022-07-31T08:42:47.761Z,100052.81
2022-07-31T08:44:02.700Z,100038.56
2022-07-31T08:45:07.962Z,100034.84
2022-07-31T08:46:10.740Z,100045.09
2022-07-31T08:47:15.016Z,100047.50
2022-07-31T08:48:17.285Z,100041.44
2022-07-31T08:49:23.344Z,100052.44
2022-07-31T08:50:25.503Z,100055.53
2022-07-31T08:51:28.144Z,100016.78
2022-07-31T08:52:32.293Z,100042.25
2022-07-31T08:53:36.717Z,100048.84
2022-07-31T08:54:43.445Z,100039.41
2022-07-31T08:55:57.070Z,100035.47
2022-07-31T08:56:59.643Z,100035.53
2022-07-31T08:58:01.314Z,100049.50
2022-07-31T08:59:07.227Z,100039.03
2022-07-31T09:00:13.128Z,100034.03
2022-07-31T09:01:15.296Z,100040.81
2022-07-31T09:02:17.013Z,100046.59
2022-07-31T09:03:19.285Z,100044.63
2022-07-31T09:04:20.887Z,100042.16
2022-07-31T09:05:25.084Z,100043.00
2022-07-31T09:06:27.410Z,100033.91
2022-07-31T09:07:29.166Z,100038.44
2022-07-31T09:08:36.005Z,100039.28
2022-07-31T09:09:41.111Z,100034.31
2022-07-31T09:11:03.423Z,100036.50
2022-07-31T09:12:08.078Z,100031.75
2022-07-31T09:13:14.978Z,100028.22
2022-07-31T09:14:35.626Z,100024.69
2022-07-31T09:15:37.665Z,100028.81
2022-07-31T09:16:50.362Z,100027.31
2022-07-31T09:17:53.950Z,100043.59
2022-07-31T09:18:56.201Z,100037.16
2022-07-31T09:19:57.839Z,100038.56
2022-07-31T09:21:05.565Z,100039.47
2022-07-31T09:22:11.055Z,100030.50
2022-07-31T09:23:12.870Z,100037.00
2022-07-31T09:24:27.730Z,100029.94
2022-07-31T09:25:29.463Z,100025.94
2022-07-31T09:26:35.023Z,100023.63
2022-07-31T09:27:36.718Z,100028.34
2022-07-31T09:28:39.286Z,100031.81
2022-07-31T09:29:42.865Z,100035.53
2022-07-31T09:30:56.118Z,100026.16
2022-07-31T09:32:14.414Z,100027.63
2022-07-31T09:33:17.555Z,100023.81
2022-07-31T09:34:30.871Z,100022.88
2022-07-31T09:35:39.800Z,100028.19
2022-07-31T09:36:43.230Z,100023.81
2022-07-31T09:37:47.515Z,100012.16
2022-07-31T09:38:49.207Z,100017.81
2022-07-31T09:39:52.027Z,100017.91
2022-07-31T09:40:56.943Z,100010.19
2022-07-31T09:42:10.467Z,100015.38
2022-07-31T09:43:24.436Z,100017.09
2022-07-31T09:44:36.030Z,100006.53
2022-07-31T09:45:37.726Z,100017.66
2022-07-31T09:46:51.402Z,100010.84
2022-07-31T09:48:06.953Z,100014.75
2022-07-31T09:49:09.545Z,100017.50
2022-07-31T09:50:11.801Z,100018.63
2022-07-31T09:51:13.380Z,100015.44
2022-07-31T09:52:19.748Z,100013.81
2022-07-31T09:53:22.147Z,100020.91
2022-07-31T09:54:25.930Z,100009.34
2022-07-31T09:55:28.634Z,100018.78
2022-07-31T09:56:32.356Z,100022.13
2022-07-31T09:57:38.113Z,100015.16
2022-07-31T09:58:41.530Z,100032.75
2022-07-31T09:59:44.103Z,100027.69
2022-07-31T10:00:52.809Z,100021.06
2022-07-31T10:01:55.494Z,100024.97
2022-07-31T10:02:57.675Z,100016.56
2022-07-31T10:04:01.504Z,100020.25
2022-07-31T10:05:03.326Z,100023.84
2022-07-31T10:06:06.897Z,100013.75
2022-07-31T10:07:08.727Z,100013.63
2022-07-31T10:08:35.982Z,100014.81
2022-07-31T10:09:40.871Z,100020.13
2022-07-31T10:10:46.606Z,99983.63
2022-07-31T10:11:50.606Z,100016.84
2022-07-31T10:12:55.218Z,100026.75
2022-07-31T10:14:02.274Z,100017.56
2022-07-31T10:15:07.191Z,100019.09
2022-07-31T10:16:09.854Z,100006.97
2022-07-31T10:17:12.930Z,100016.25
2022-07-31T10:18:17.785Z,100018.91
2022-07-31T10:19:40.908Z,100017.06
2022-07-31T10:20:49.222Z,100021.06
2022-07-31T10:21:59.736Z,100007.75
2022-07-31T10:23:19.798Z,100020.25
2022-07-31T10:24:27.879Z,100017.41
2022-07-31T10:25:31.044Z,100029.22
2022-07-31T10:26:58.674Z,100012.69
2022-07-31T10:27:57.266Z,100003.50
2022-07-31T10:28:59.341Z,100002.84
2022-07-31T10:30:01.579Z,100000.13
2022-07-31T10:31:03.857Z,100011.47
2022-07-31T10:32:06.675Z,100012.06
2022-07-31T10:33:40.839Z,100007.97
2022-07-31T10:34:34.826Z,99988.47
2022-07-31T10:35:44.586Z,99999.94
2022-07-31T10:37:05.690Z,99985.88
2022-07-31T10:38:22.720Z,100003.34
2022-07-31T10:39:30.112Z,99992.25
2022-07-31T10:40:35.890Z,99989.78
2022-07-31T10:42:00.399Z,99993.03
2022-07-31T10:43:17.333Z,99982.81
2022-07-31T10:44:38.204Z,99989.06
2022-07-31T10:45:54.012Z,99994.34
2022-07-31T10:46:55.630Z,99982.09
2022-07-31T10:47:59.777Z,99980.28
2022-07-31T10:49:08.562Z,99984.00
2022-07-31T10:50:20.835Z,99973.50
2022-07-31T10:51:23.331Z,99971.63
2022-07-31T10:52:37.185Z,99981.97
2022-07-31T10:53:51.490Z,99977.38
2022-07-31T10:55:00.113Z,99992.13
2022-07-31T10:56:12.945Z,99976.59
2022-07-31T10:57:24.986Z,99983.28
2022-07-31T10:58:26.824Z,99969.94
2022-07-31T10:59:29.217Z,99972.13
2022-07-31T11:00:33.558Z,99968.16
2022-07-31T11:01:53.370Z,99962.16
2022-07-31T11:02:55.308Z,99955.84
2022-07-31T11:04:01.698Z,99964.47
2022-07-31T11:05:27.846Z,99961.91
2022-07-31T11:06:44.639Z,99961.03
2022-07-31T11:07:46.481Z,99966.66
2022-07-31T11:08:53.892Z,99958.72
2022-07-31T11:09:55.531Z,99953.69
2022-07-31T11:11:00.783Z,99953.09
2022-07-31T11:12:17.600Z,99957.53
2022-07-31T11:13:20.880Z,99960.00
2022-07-31T11:14:35.496Z,99953.47
2022-07-31T11:15:39.754Z,99943.16
2022-07-31T11:16:55.597Z,99952.78
2022-07-31T11:18:21.123Z,99959.34
2022-07-31T11:19:19.190Z,99951.19
2022-07-31T11:20:26.234Z,99949.75
2022-07-31T11:21:40.271Z,99949.97
2022-07-31T11:22:42.965Z,99948.50
2022-07-31T11:23:55.893Z,99931.16
2022-07-31T11:25:05.005Z,99935.88
2022-07-31T11:26:07.937Z,99936.16
2022-07-31T11:27:09.598Z,99932.34
2022-07-31T11:28:12.588Z,99939.44
2022-07-31T11:29:59.753Z,99938.16
2022-07-31T11:30:57.417Z,99928.72
2022-07-31T11:32:24.737Z,99938.03
2022-07-31T11:33:46.790Z,99929.41
2022-07-31T11:34:53.938Z,99926.47
2022-07-31T11:35:57.270Z,99932.44
2022-07-31T11:36:58.884Z,99933.56
2022-07-31T11:38:01.298Z,99928.88
2022-07-31T11:39:03.698Z,99926.41
2022-07-31T11:40:07.860Z,99925.00
2022-07-31T11:41:10.140Z,99924.66
2022-07-31T11:42:11.771Z,99935.72
2022-07-31T11:43:29.259Z,99930.44
2022-07-31T11:44:30.792Z,99931.56
2022-07-31T11:45:33.524Z,99922.63
2022-07-31T11:46:37.934Z,99910.25
2022-07-31T11:48:11.169Z,99920.56
2022-07-31T11:49:06.069Z,99908.44
2022-07-31T11:50:10.384Z,99916.84
2022-07-31T11:51:18.313Z,99904.13
2022-07-31T11:52:30.840Z,99914.31
2022-07-31T11:53:42.322Z,99907.06
2022-07-31T11:54:44.020Z,99896.50
2022-07-31T11:55:54.009Z,99916.34
2022-07-31T11:56:56.023Z,99910.38
2022-07-31T11:57:57.745Z,99898.72
2022-07-31T11:58:59.401Z,99907.81
2022-07-31T12:00:29.369Z,99904.69
2022-07-31T12:01:31.108Z,99892.59
2022-07-31T12:02:33.125Z,99883.13
2022-07-31T12:03:39.097Z,99894.94
2022-07-31T12:04:40.894Z,99905.28
2022-07-31T12:05:48.134Z,99900.03
2022-07-31T12:06:56.140Z,99889.09
2022-07-31T12:07:58.209Z,99889.16
2022-07-31T12:09:00.034Z,99901.13
2022-07-31T12:10:03.666Z,99888.22
2022-07-31T12:11:08.109Z,99884.53
2022-07-31T12:12:11.764Z,99887.22
2022-07-31T12:13:16.441Z,99884.47
2022-07-31T12:14:47.343Z,99882.38
2022-07-31T12:16:11.199Z,99884.47
2022-07-31T12:17:20.500Z,99900.41
2022-07-31T12:18:22.873Z,99887.44
2022-07-31T12:19:30.291Z,99895.22
2022-07-31T12:20:38.957Z,99886.66
2022-07-31T12:21:40.736Z,99872.06
2022-07-31T12:22:42.309Z,99862.50
2022-07-31T12:23:51.306Z,99874.03